Cosco Auckland — VRKF8 — position and weather

sailwx.info

Track history (hours):
 
Tides and Currents Weather Stations Pressure Air Temp Water Temp Dewpoint Dewpoint Depression Visibility Wind Speed Wind Dir Waves Ship Positions

Cosco Auckland

Last reported at 2018-Apr-21 17:51 UTC. Time now 2018-Apr-24 23:04 UTC.
Position N 41°21' E 138°59'.

Length 261 m; draft 10.1 m.

Type: Ship (hazmat cat A). MMSI: 477765800.

Date/timePositionNaut miles runAvg speedWind from/ knotsBaromVisibWave heightAir tempDewpointWater temp
2018-Apr-21 17:51N 41°21' E 138°59'513.9
2018-Apr-21 17:30N 41°20' E 139°06'2513.6
2018-Apr-21 15:39N 41°15' E 139°39'2712.9
2018-Apr-21 13:35N 41°19' E 140°14'112.6
2018-Apr-21 13:29N 41°20' E 140°15'611.4
2018-Apr-21 12:59N 41°24' E 140°21'611.7
2018-Apr-21 12:29N 41°26' E 140°28'611.9
2018-Apr-21 11:59N 41°30' E 140°34'612.1
2018-Apr-21 11:30N 41°34' E 140°40'611.4
2018-Apr-21 11:00N 41°37' E 140°46'5 9.9
2018-Apr-21 10:30N 41°38' E 140°53'5 9.3
2018-Apr-21 10:00N 41°39' E 140°59'4 8.5
2018-Apr-21 09:30N 41°39' E 141°05'510.6
2018-Apr-21 09:00N 41°39' E 141°12'611.0
2018-Apr-21 08:30N 41°39' E 141°19'611.6
2018-Apr-21 08:00N 41°40' E 141°27'610.7
2018-Apr-21 07:29N 41°40' E 141°34'611.4
2018-Apr-21 07:00N 41°40' E 141°42'1012.9
2018-Apr-21 06:12N 41°41' E 141°55'312.7
2018-Apr-21 05:59N 41°41' E 141°59'  
2018-Apr-17 00:00N 54°00' E 171°54'58612.5 360 / 35971.0 5.0 5.0
2018-Apr-15 01:00N 54°42' W 171°24'32312.4 180 / 331002.0 5.4 7.0 6.0
2018-Apr-13 23:00N 54°06' W 162°12'29311.7 270 / 321007.0 5.4 9.0 7.0
2018-Apr-12 22:00N 53°54' W 153°54'   180 / 15990.010.8 7.0 6.0
Track history (hours):
 
Tides and Currents Weather Stations Pressure Air Temp Water Temp Dewpoint Dewpoint Depression Visibility Wind Speed Wind Dir Waves Ship Positions

Cosco Auckland

Last reported at 2018-Apr-21 17:51 UTC. Time now 2018-Apr-24 23:04 UTC.
Position N 41°21' E 138°59'.

Length 261 m; draft 10.1 m.

Type: Ship (hazmat cat A). MMSI: 477765800.

Date/timePositionNaut miles runAvg speedWind from/ knotsBaromVisibWave heightAir tempDewpointWater temp
2018-Apr-21 17:51N 41°21' E 138°59'513.9
2018-Apr-21 17:30N 41°20' E 139°06'2513.6
2018-Apr-21 15:39N 41°15' E 139°39'2712.9
2018-Apr-21 13:35N 41°19' E 140°14'112.6
2018-Apr-21 13:29N 41°20' E 140°15'611.4
2018-Apr-21 12:59N 41°24' E 140°21'611.7
2018-Apr-21 12:29N 41°26' E 140°28'611.9
2018-Apr-21 11:59N 41°30' E 140°34'612.1
2018-Apr-21 11:30N 41°34' E 140°40'611.4
2018-Apr-21 11:00N 41°37' E 140°46'5 9.9
2018-Apr-21 10:30N 41°38' E 140°53'5 9.3
2018-Apr-21 10:00N 41°39' E 140°59'4 8.5
2018-Apr-21 09:30N 41°39' E 141°05'510.6
2018-Apr-21 09:00N 41°39' E 141°12'611.0
2018-Apr-21 08:30N 41°39' E 141°19'611.6
2018-Apr-21 08:00N 41°40' E 141°27'610.7
2018-Apr-21 07:29N 41°40' E 141°34'611.4
2018-Apr-21 07:00N 41°40' E 141°42'1012.9
2018-Apr-21 06:12N 41°41' E 141°55'312.7
2018-Apr-21 05:59N 41°41' E 141°59'  
2018-Apr-17 00:00N 54°00' E 171°54'58612.5 360 / 35971.0 5.0 5.0
2018-Apr-15 01:00N 54°42' W 171°24'32312.4 180 / 331002.0 5.4 7.0 6.0
2018-Apr-13 23:00N 54°06' W 162°12'29311.7 270 / 321007.0 5.4 9.0 7.0
2018-Apr-12 22:00N 53°54' W 153°54'   180 / 15990.010.8 7.0 6.0

Dump ship's entire track history